createdAt,value
2022-11-09T00:01:05.484Z,13.57
2022-11-09T00:03:34.645Z,12.63
2022-11-09T00:06:02.338Z,13.10
2022-11-09T00:08:30.060Z,10.03
2022-11-09T00:11:05.724Z,15.07
2022-11-09T00:13:37.594Z,10.97
2022-11-09T00:16:06.430Z,12.10
2022-11-09T00:18:38.622Z,10.33
2022-11-09T00:21:12.534Z,10.73
2022-11-09T00:23:46.415Z,9.77
2022-11-09T00:26:15.802Z,11.70
2022-11-09T00:28:43.905Z,9.63
2022-11-09T00:31:14.489Z,10.73
2022-11-09T00:33:42.329Z,11.63
2022-11-09T00:36:12.819Z,9.83
2022-11-09T00:38:40.793Z,13.60
2022-11-09T00:41:10.875Z,11.17
2022-11-09T00:43:41.487Z,11.70
2022-11-09T00:46:10.314Z,10.10
2022-11-09T00:48:41.415Z,10.63
2022-11-09T00:51:09.897Z,12.83
2022-11-09T00:53:37.763Z,10.03
2022-11-09T00:56:08.672Z,8.57
2022-11-09T00:58:38.280Z,10.37
2022-11-09T01:01:16.961Z,10.77
2022-11-09T01:03:45.637Z,8.17
2022-11-09T01:06:19.001Z,9.97
2022-11-09T01:08:47.388Z,9.37
2022-11-09T01:11:16.339Z,11.33
2022-11-09T01:13:44.827Z,10.33
2022-11-09T01:16:36.427Z,11.53
2022-11-09T01:19:06.866Z,11.47
2022-11-09T01:21:34.469Z,11.07
2022-11-09T01:24:02.499Z,11.87
2022-11-09T01:26:30.086Z,12.07
2022-11-09T01:28:57.712Z,13.00
2022-11-09T01:31:29.157Z,11.97
2022-11-09T01:33:56.821Z,9.10
2022-11-09T01:36:25.220Z,10.57
2022-11-09T01:38:52.945Z,10.17
2022-11-09T01:41:25.134Z,10.03
2022-11-09T01:44:03.502Z,10.73
2022-11-09T01:46:55.846Z,13.27
2022-11-09T01:49:41.134Z,11.90
2022-11-09T01:52:17.924Z,14.93
2022-11-09T01:54:49.032Z,11.87
2022-11-09T01:57:22.468Z,11.17
2022-11-09T01:59:56.440Z,9.93
2022-11-09T02:02:24.754Z,10.90
2022-11-09T02:04:58.715Z,11.53
2022-11-09T02:07:26.454Z,9.80
2022-11-09T02:09:54.025Z,10.47
2022-11-09T02:12:22.980Z,10.53
2022-11-09T02:14:53.578Z,10.30
2022-11-09T02:17:21.723Z,9.90
2022-11-09T02:19:49.764Z,12.53
2022-11-09T02:22:17.569Z,11.60
2022-11-09T02:24:45.455Z,9.43
2022-11-09T02:27:13.325Z,10.70
2022-11-09T02:29:43.200Z,8.90
2022-11-09T02:32:15.537Z,12.23
2022-11-09T02:34:43.328Z,12.23
2022-11-09T02:37:11.016Z,10.30
2022-11-09T02:39:39.347Z,11.47
2022-11-09T02:42:11.496Z,11.23
2022-11-09T02:44:45.760Z,10.73
2022-11-09T02:47:16.218Z,8.30
2022-11-09T02:49:43.775Z,11.67
2022-11-09T02:52:11.491Z,10.70
2022-11-09T02:54:39.077Z,9.67
2022-11-09T02:57:09.478Z,11.43
2022-11-09T02:59:37.161Z,10.97
2022-11-09T03:02:04.855Z,9.57
2022-11-09T03:04:32.586Z,9.77
2022-11-09T03:07:00.387Z,11.97
2022-11-09T03:09:29.125Z,12.10
2022-11-09T03:11:56.749Z,13.77
2022-11-09T03:14:27.096Z,10.63
2022-11-09T03:16:54.734Z,13.27
2022-11-09T03:19:22.416Z,14.37
2022-11-09T03:21:50.054Z,12.17
2022-11-09T03:24:17.628Z,10.13
2022-11-09T03:26:45.232Z,11.60
2022-11-09T03:29:15.751Z,9.17
2022-11-09T03:31:43.338Z,11.17
2022-11-09T03:34:10.956Z,7.67
2022-11-09T03:36:38.650Z,8.03
2022-11-09T03:39:06.278Z,8.30
2022-11-09T03:41:35.084Z,10.80
2022-11-09T03:44:05.548Z,8.43
2022-11-09T03:46:33.366Z,9.53
2022-11-09T03:49:01.089Z,8.90
2022-11-09T03:51:28.744Z,11.63
2022-11-09T03:53:56.331Z,10.20
2022-11-09T03:56:26.708Z,10.77
2022-11-09T03:58:54.333Z,10.20
2022-11-09T04:01:22.398Z,10.53
2022-11-09T04:03:50.090Z,8.90
2022-11-09T04:06:17.696Z,12.30
2022-11-09T04:08:50.961Z,12.80
2022-11-09T04:11:19.288Z,13.70
2022-11-09T04:13:47.458Z,12.17
2022-11-09T04:16:15.220Z,11.13
2022-11-09T04:18:42.858Z,14.66
2022-11-09T04:21:10.478Z,12.33
2022-11-09T04:23:41.070Z,10.90
2022-11-09T04:26:08.805Z,10.63
2022-11-09T04:28:36.628Z,10.60
2022-11-09T04:31:04.428Z,9.77
2022-11-09T04:33:32.088Z,14.53
2022-11-09T04:36:07.619Z,32.83
2022-11-09T04:38:36.557Z,28.83
2022-11-09T04:41:05.097Z,23.97
2022-11-09T04:43:33.259Z,18.30
2022-11-09T04:46:02.760Z,14.00
2022-11-09T04:48:36.433Z,13.70
2022-11-09T04:51:11.597Z,15.80
2022-11-09T04:53:39.970Z,12.17
2022-11-09T04:56:08.063Z,14.97
2022-11-09T04:58:35.986Z,12.23
2022-11-09T05:01:11.559Z,12.53
2022-11-09T05:03:39.818Z,10.53
2022-11-09T05:06:34.587Z,10.80
2022-11-09T05:09:05.946Z,13.37
2022-11-09T05:11:35.461Z,11.43
2022-11-09T05:14:06.874Z,10.93
2022-11-09T05:16:34.578Z,11.03
2022-11-09T05:19:04.924Z,12.53
2022-11-09T05:21:32.534Z,12.87
2022-11-09T05:24:00.312Z,11.20
2022-11-09T05:26:31.139Z,13.63
2022-11-09T05:29:00.234Z,12.87
2022-11-09T05:31:30.512Z,12.47
2022-11-09T05:33:59.481Z,10.93
2022-11-09T05:36:28.689Z,11.93
2022-11-09T05:39:00.156Z,14.63
2022-11-09T05:41:28.165Z,11.07
2022-11-09T05:43:55.904Z,11.50
2022-11-09T05:46:23.605Z,10.57
2022-11-09T05:48:51.196Z,11.40
2022-11-09T05:51:18.834Z,10.93
2022-11-09T05:53:47.234Z,11.50
2022-11-09T05:56:15.520Z,10.50
2022-11-09T05:58:43.558Z,12.77
2022-11-09T06:01:16.262Z,12.40
2022-11-09T06:03:44.494Z,11.83
2022-11-09T06:06:22.135Z,10.47
2022-11-09T06:08:50.716Z,10.67
2022-11-09T06:11:23.843Z,8.90
2022-11-09T06:13:55.325Z,9.27
2022-11-09T06:16:23.029Z,9.63
2022-11-09T06:18:50.775Z,8.63
2022-11-09T06:21:18.587Z,8.37
2022-11-09T06:23:46.676Z,11.37
2022-11-09T06:26:14.365Z,11.90
2022-11-09T06:28:42.791Z,22.70
2022-11-09T06:31:15.363Z,9.73
2022-11-09T06:33:43.595Z,9.10
2022-11-09T06:36:12.583Z,7.63
2022-11-09T06:38:40.632Z,9.47
2022-11-09T06:41:11.245Z,10.70
2022-11-09T06:43:38.906Z,9.10
2022-11-09T06:46:06.907Z,8.37
2022-11-09T06:48:34.569Z,9.70
2022-11-09T06:51:03.139Z,9.60
2022-11-09T06:53:32.346Z,8.90
2022-11-09T06:56:01.859Z,10.13
2022-11-09T06:58:29.798Z,10.77
2022-11-09T07:00:57.802Z,8.93
2022-11-09T07:03:25.895Z,9.77
2022-11-09T07:05:53.535Z,17.20
2022-11-09T07:08:21.138Z,7.93
2022-11-09T07:10:48.814Z,8.63
2022-11-09T07:13:16.437Z,8.90
2022-11-09T07:15:47.317Z,8.87
2022-11-09T07:18:17.949Z,6.47
2022-11-09T07:20:45.525Z,6.77
2022-11-09T07:23:13.157Z,7.37
2022-11-09T07:25:40.713Z,9.90
2022-11-09T07:28:09.927Z,7.27
2022-11-09T07:30:38.227Z,7.50
2022-11-09T07:33:14.649Z,8.47
2022-11-09T07:35:42.449Z,9.33
2022-11-09T07:38:10.494Z,7.03
2022-11-09T07:40:38.076Z,8.67
2022-11-09T07:43:06.544Z,8.57
2022-11-09T07:45:35.471Z,9.03
2022-11-09T07:48:06.468Z,9.33
2022-11-09T07:50:35.726Z,11.50
2022-11-09T07:53:03.981Z,9.67
2022-11-09T07:55:31.616Z,10.43
2022-11-09T07:58:02.849Z,9.77
2022-11-09T08:00:32.250Z,9.47
2022-11-09T08:03:03.781Z,9.03
2022-11-09T08:05:31.806Z,8.53
2022-11-09T08:08:05.926Z,10.77
2022-11-09T08:10:35.539Z,9.37
2022-11-09T08:13:09.717Z,10.53
2022-11-09T08:15:38.358Z,10.00
2022-11-09T08:18:13.102Z,11.97
2022-11-09T08:20:40.772Z,10.13
2022-11-09T08:23:11.059Z,8.77
2022-11-09T08:25:38.801Z,10.07
2022-11-09T08:28:09.593Z,12.27
2022-11-09T08:30:41.144Z,8.03
2022-11-09T08:33:09.271Z,9.27
2022-11-09T08:35:36.968Z,6.97
2022-11-09T08:38:06.051Z,7.93
2022-11-09T08:40:34.342Z,6.03
2022-11-09T08:43:07.565Z,7.90
2022-11-09T08:45:37.594Z,9.23
2022-11-09T08:48:07.360Z,8.83
2022-11-09T08:50:36.687Z,9.17
2022-11-09T08:53:10.442Z,6.10
2022-11-09T08:55:38.067Z,8.60
2022-11-09T08:58:08.120Z,8.57
2022-11-09T09:00:35.675Z,5.80
2022-11-09T09:03:07.339Z,7.20
2022-11-09T09:05:36.116Z,4.93
2022-11-09T09:08:05.947Z,3.13
2022-11-09T09:10:35.569Z,4.87
2022-11-09T09:13:04.455Z,11.40
2022-11-09T09:15:35.252Z,7.33
2022-11-09T09:18:05.881Z,10.13
2022-11-09T09:20:33.472Z,6.03
2022-11-09T09:23:01.563Z,6.47
2022-11-09T09:25:30.805Z,6.57
2022-11-09T09:27:58.386Z,7.97
2022-11-09T09:30:26.100Z,3.40
2022-11-09T09:32:58.583Z,3.37
2022-11-09T09:35:27.590Z,4.77
2022-11-09T09:37:58.462Z,2.23
2022-11-09T09:40:33.631Z,2.57
2022-11-09T09:43:01.432Z,2.20
2022-11-09T09:45:32.559Z,2.10
2022-11-09T09:48:24.916Z,4.07
2022-11-09T09:50:57.455Z,3.73
2022-11-09T09:53:36.660Z,3.60
2022-11-09T09:56:25.095Z,1.90
2022-11-09T09:59:20.490Z,3.47
2022-11-09T10:01:49.036Z,4.30
2022-11-09T10:04:29.985Z,2.97
2022-11-09T10:07:19.185Z,7.23
2022-11-09T10:10:20.709Z,4.70
2022-11-09T10:12:51.338Z,1.67
2022-11-09T10:15:46.857Z,2.13
2022-11-09T10:18:28.082Z,7.13
2022-11-09T10:21:22.658Z,4.60
2022-11-09T10:24:19.480Z,2.87
2022-11-09T10:26:51.727Z,3.83
2022-11-09T10:29:24.183Z,2.00
2022-11-09T10:32:01.293Z,2.50
2022-11-09T10:35:00.240Z,3.23
2022-11-09T10:37:46.476Z,2.73
2022-11-09T10:40:22.863Z,1.47
2022-11-09T10:43:02.813Z,3.80
2022-11-09T10:45:37.591Z,5.87
2022-11-09T10:48:06.924Z,3.17
2022-11-09T10:50:39.118Z,5.87
2022-11-09T10:53:27.293Z,3.00
2022-11-09T10:56:02.857Z,5.27
2022-11-09T10:58:36.396Z,2.53
2022-11-09T11:01:18.083Z,3.77
2022-11-09T11:03:49.168Z,5.13
2022-11-09T11:06:34.833Z,3.00
2022-11-09T11:09:05.385Z,2.57
2022-11-09T11:11:37.851Z,1.95
2022-11-09T11:14:05.585Z,2.20
2022-11-09T11:16:37.604Z,3.33
2022-11-09T11:19:05.857Z,3.08
2022-11-09T11:21:33.457Z,4.32
2022-11-09T11:24:19.662Z,2.97
2022-11-09T11:27:10.197Z,2.35
2022-11-09T11:29:48.269Z,3.88
2022-11-09T11:32:18.552Z,3.38
2022-11-09T11:34:59.803Z,2.72
2022-11-09T11:37:35.336Z,2.60
2022-11-09T11:40:30.521Z,5.30
2022-11-09T11:43:05.287Z,2.30
2022-11-09T11:45:43.205Z,2.90
2022-11-09T11:48:13.476Z,2.63
2022-11-09T11:51:02.627Z,3.60
2022-11-09T11:53:54.510Z,3.22
2022-11-09T11:56:37.756Z,5.57
2022-11-09T11:59:29.995Z,2.60
2022-11-09T12:02:31.231Z,3.83
2022-11-09T12:05:35.824Z,3.03
2022-11-09T12:08:32.399Z,2.83
2022-11-09T12:11:33.060Z,3.60
2022-11-09T12:14:17.758Z,3.27
2022-11-09T12:17:04.833Z,2.70
2022-11-09T12:19:44.544Z,3.53
2022-11-09T12:22:20.706Z,4.30
2022-11-09T12:25:14.424Z,4.03
2022-11-09T12:28:00.688Z,1.93
2022-11-09T12:30:47.720Z,3.23
2022-11-09T12:33:23.444Z,2.67
2022-11-09T12:35:58.093Z,4.80
2022-11-09T12:38:33.546Z,1.60
2022-11-09T12:41:08.146Z,3.70
2022-11-09T12:43:45.716Z,2.27
2022-11-09T12:46:36.783Z,2.10
2022-11-09T12:49:06.102Z,2.43
2022-11-09T12:51:34.651Z,3.90
2022-11-09T12:54:18.879Z,4.13
2022-11-09T13:09:25.558Z,3.90
2022-11-09T13:11:53.369Z,3.43
2022-11-09T13:14:28.961Z,5.90
2022-11-09T13:17:02.410Z,5.17
2022-11-09T13:19:36.219Z,4.97
2022-11-09T13:22:24.254Z,4.13
2022-11-09T13:25:01.926Z,5.53
2022-11-09T13:27:40.766Z,2.50
2022-11-09T13:30:23.818Z,2.53
2022-11-09T13:33:06.992Z,2.57
2022-11-09T13:35:40.743Z,4.60
2022-11-09T13:38:20.141Z,4.57
2022-11-09T13:40:56.970Z,4.57
2022-11-09T13:43:28.773Z,4.47
2022-11-09T13:46:04.705Z,2.50
2022-11-09T13:48:38.933Z,2.53
2022-11-09T13:51:20.055Z,3.80
2022-11-09T13:53:53.019Z,2.97
2022-11-09T13:56:28.156Z,7.03
2022-11-09T13:59:19.199Z,3.53
2022-11-09T14:01:54.010Z,2.57
2022-11-09T14:04:33.945Z,6.40
2022-11-09T14:07:07.260Z,9.23
2022-11-09T14:09:45.803Z,7.63
2022-11-09T14:12:44.450Z,6.03
2022-11-09T14:15:34.150Z,5.33
2022-11-09T14:18:08.949Z,4.07
2022-11-09T14:20:53.198Z,4.13
2022-11-09T14:23:24.721Z,4.23
2022-11-09T14:25:52.640Z,4.33
2022-11-09T14:28:23.465Z,3.67
2022-11-09T14:30:51.674Z,2.50
2022-11-09T14:33:24.386Z,5.20
2022-11-09T14:35:56.445Z,2.57
2022-11-09T14:38:26.204Z,4.97
2022-11-09T14:40:54.909Z,6.53
2022-11-09T14:43:39.314Z,5.40
2022-11-09T14:46:17.540Z,5.50
2022-11-09T14:49:15.227Z,4.10
2022-11-09T14:51:47.471Z,9.77
2022-11-09T14:54:18.589Z,4.03
2022-11-09T14:56:47.695Z,5.70
2022-11-09T14:59:43.133Z,5.20
2022-11-09T15:02:17.013Z,5.77
2022-11-09T15:04:57.514Z,6.63
2022-11-09T15:07:34.514Z,8.03
2022-11-09T15:10:06.977Z,5.63
2022-11-09T15:12:39.191Z,5.30
2022-11-09T15:15:23.355Z,6.30
2022-11-09T15:17:51.583Z,5.23
2022-11-09T15:20:22.899Z,4.27
2022-11-09T15:23:35.552Z,6.13
2022-11-09T15:26:03.266Z,4.83
2022-11-09T15:28:45.164Z,4.33
2022-11-09T15:31:18.465Z,5.47
2022-11-09T15:33:52.017Z,5.83
2022-11-09T15:36:28.647Z,7.57
2022-11-09T15:39:18.623Z,6.97
2022-11-09T15:41:46.501Z,6.87
2022-11-09T15:44:15.074Z,6.87
2022-11-09T15:46:48.949Z,4.97
2022-11-09T15:49:28.664Z,8.57
2022-11-09T15:51:56.574Z,8.20
2022-11-09T15:54:24.572Z,7.23
2022-11-09T15:56:52.334Z,5.13
2022-11-09T15:59:28.476Z,4.23
2022-11-09T16:01:56.221Z,3.73
2022-11-09T16:04:23.829Z,6.53
2022-11-09T16:06:51.550Z,3.97
2022-11-09T16:09:19.344Z,4.53
2022-11-09T16:11:49.779Z,6.80
2022-11-09T16:14:17.937Z,6.97
2022-11-09T16:16:45.605Z,7.30
2022-11-09T16:19:17.540Z,4.03
2022-11-09T16:21:47.919Z,5.77
2022-11-09T16:24:16.788Z,6.70
2022-11-09T16:26:45.454Z,4.87
2022-11-09T16:29:13.647Z,3.50
2022-11-09T16:31:51.342Z,6.70
2022-11-09T16:34:19.814Z,4.23
2022-11-09T16:36:56.601Z,5.87
2022-11-09T16:39:25.815Z,16.17
2022-11-09T16:42:01.382Z,21.33
2022-11-09T16:44:36.573Z,22.10
2022-11-09T16:47:08.275Z,6.07
2022-11-09T16:49:35.939Z,18.57
2022-11-09T16:52:03.804Z,8.77
2022-11-09T16:54:31.751Z,8.57
2022-11-09T16:57:00.409Z,5.43
2022-11-09T16:59:28.032Z,6.03
2022-11-09T17:02:03.212Z,5.27
2022-11-09T17:04:30.995Z,12.17
2022-11-09T17:06:58.744Z,6.30
2022-11-09T17:09:26.593Z,7.37
2022-11-09T17:11:54.546Z,7.17
2022-11-09T17:14:22.249Z,8.17
2022-11-09T17:16:50.038Z,4.63
2022-11-09T17:19:20.727Z,5.93
2022-11-09T17:21:48.525Z,5.03
2022-11-09T17:24:16.497Z,5.37
2022-11-09T17:26:44.238Z,6.03
2022-11-09T17:29:12.798Z,5.97
2022-11-09T17:31:40.844Z,6.13
2022-11-09T17:34:11.173Z,8.57
2022-11-09T17:39:32.208Z,6.53
2022-11-09T17:41:59.926Z,5.57
2022-11-09T17:44:27.574Z,5.37
2022-11-09T17:46:55.273Z,4.60
2022-11-09T17:49:23.004Z,5.57
2022-11-09T17:51:50.801Z,7.03
2022-11-09T17:54:18.912Z,6.20
2022-11-09T17:56:46.683Z,6.43
2022-11-09T17:59:14.472Z,6.33
2022-11-09T18:01:42.288Z,7.07
2022-11-09T18:04:11.074Z,9.50
2022-11-09T18:06:39.043Z,6.17
2022-11-09T18:11:55.172Z,7.87
2022-11-09T18:14:22.923Z,6.43
2022-11-09T18:16:50.582Z,4.53
2022-11-09T18:19:18.319Z,4.40
2022-11-09T18:21:47.244Z,7.00
2022-11-09T18:24:15.027Z,7.13
2022-11-09T18:26:45.800Z,5.50
2022-11-09T18:29:13.427Z,5.97
2022-11-09T18:31:41.047Z,4.80
2022-11-09T18:34:10.200Z,6.80
2022-11-09T18:36:39.832Z,6.57
2022-11-09T18:39:07.797Z,6.83
2022-11-09T18:41:39.045Z,6.73
2022-11-09T18:44:10.204Z,4.43
2022-11-09T18:46:37.871Z,7.73
2022-11-09T18:49:10.166Z,4.07
2022-11-09T18:51:40.690Z,7.83
2022-11-09T18:54:08.314Z,5.83
2022-11-09T18:56:36.199Z,6.57
2022-11-09T18:59:04.102Z,8.43
2022-11-09T19:01:32.264Z,6.53
2022-11-09T19:04:02.821Z,7.20
2022-11-09T19:06:30.864Z,9.87
2022-11-09T19:09:17.399Z,7.50
2022-11-09T19:11:48.148Z,6.10
2022-11-09T19:14:16.039Z,9.10
2022-11-09T19:16:43.860Z,5.03
2022-11-09T19:19:15.468Z,5.63
2022-11-09T19:21:49.252Z,6.10
2022-11-09T19:24:19.382Z,4.90
2022-11-09T19:26:48.041Z,7.40
2022-11-09T19:29:16.815Z,7.90
2022-11-09T19:31:45.789Z,7.37
2022-11-09T19:34:18.586Z,7.43
2022-11-09T19:36:46.813Z,6.93
2022-11-09T19:39:15.410Z,7.63
2022-11-09T19:41:43.450Z,5.80
2022-11-09T19:44:15.028Z,4.47
2022-11-09T19:46:43.126Z,5.87
2022-11-09T19:49:10.900Z,6.00
2022-11-09T19:51:39.611Z,9.73
2022-11-09T19:54:08.110Z,6.77
2022-11-09T19:56:37.458Z,8.00
2022-11-09T19:59:05.905Z,5.40
2022-11-09T20:01:33.905Z,7.37
2022-11-09T20:04:05.247Z,5.57
2022-11-09T20:06:38.316Z,6.83
2022-11-09T20:09:06.227Z,8.50
2022-11-09T20:11:52.747Z,7.27
2022-11-09T20:14:21.327Z,8.37
2022-11-09T20:16:53.473Z,6.27
2022-11-09T20:19:21.928Z,9.20
2022-11-09T20:21:49.771Z,6.73
2022-11-09T20:24:17.662Z,3.40
2022-11-09T20:26:45.375Z,7.30
2022-11-09T20:29:13.122Z,6.17
2022-11-09T20:31:41.106Z,8.67
2022-11-09T20:34:08.886Z,3.80
2022-11-09T20:36:37.471Z,9.17
2022-11-09T20:39:05.670Z,6.80
2022-11-09T20:41:33.462Z,6.73
2022-11-09T20:44:01.052Z,5.33
2022-11-09T20:46:34.389Z,5.93
2022-11-09T20:49:03.940Z,5.30
2022-11-09T20:51:32.204Z,5.43
2022-11-09T20:54:03.934Z,6.33
2022-11-09T20:56:36.281Z,7.10
2022-11-09T20:59:04.282Z,7.23
2022-11-09T21:01:32.292Z,5.37
2022-11-09T21:04:00.040Z,5.13
2022-11-09T21:06:27.816Z,4.47
2022-11-09T21:08:57.103Z,5.40
2022-11-09T21:11:28.532Z,7.03
2022-11-09T21:13:59.369Z,6.90
2022-11-09T21:16:27.950Z,10.73
2022-11-09T21:18:55.602Z,7.57
2022-11-09T21:21:30.885Z,8.73
2022-11-09T21:24:21.636Z,7.33
2022-11-09T21:27:10.593Z,9.73
2022-11-09T21:29:50.432Z,7.43
2022-11-09T21:32:19.696Z,8.57
2022-11-09T21:34:48.115Z,7.40
2022-11-09T21:37:15.874Z,10.27
2022-11-09T21:39:44.435Z,7.00
2022-11-09T21:42:12.095Z,11.10
2022-11-09T21:44:39.996Z,7.57
2022-11-09T21:47:08.568Z,8.53
2022-11-09T21:49:36.199Z,8.63
2022-11-09T21:52:07.529Z,7.03
2022-11-09T21:54:35.091Z,8.27
2022-11-09T21:57:02.739Z,10.43
2022-11-09T21:59:30.402Z,9.30
2022-11-09T22:01:58.221Z,7.27
2022-11-09T22:04:26.024Z,9.30
2022-11-09T22:06:53.950Z,7.37
2022-11-09T22:09:21.660Z,8.73
2022-11-09T22:12:07.932Z,6.70
2022-11-09T22:14:54.000Z,6.30
2022-11-09T22:17:21.655Z,8.17
2022-11-09T22:20:07.700Z,9.33
2022-11-09T22:22:36.361Z,7.20
2022-11-09T22:25:04.584Z,6.43
2022-11-09T22:27:32.868Z,6.37
2022-11-09T22:30:01.032Z,9.30
2022-11-09T22:32:28.795Z,10.63
2022-11-09T22:34:59.367Z,7.60
2022-11-09T22:37:27.065Z,8.23
2022-11-09T22:39:54.891Z,11.23
2022-11-09T22:42:23.612Z,7.87
2022-11-09T22:44:51.243Z,6.93
2022-11-09T22:47:18.927Z,6.90
2022-11-09T22:49:46.530Z,6.27
2022-11-09T22:52:14.258Z,5.83
2022-11-09T22:54:41.907Z,8.23
2022-11-09T22:57:10.931Z,4.70
2022-11-09T22:59:38.675Z,10.67
2022-11-09T23:02:06.334Z,7.90
2022-11-09T23:04:34.088Z,7.47
2022-11-09T23:07:02.290Z,7.07
2022-11-09T23:09:30.072Z,6.77
2022-11-09T23:11:57.811Z,5.17
2022-11-09T23:15:01.056Z,8.80
2022-11-09T23:17:48.831Z,8.97
2022-11-09T23:20:16.875Z,6.80
2022-11-09T23:22:44.940Z,8.13
2022-11-09T23:25:32.513Z,12.13
2022-11-09T23:28:03.900Z,13.50
2022-11-09T23:30:32.656Z,7.60
2022-11-09T23:33:01.777Z,10.87
2022-11-09T23:35:31.983Z,8.77
2022-11-09T23:38:01.001Z,10.27
2022-11-09T23:40:34.556Z,9.37
2022-11-09T23:43:04.111Z,8.27
2022-11-09T23:45:34.401Z,9.80
2022-11-09T23:48:05.590Z,8.07
2022-11-09T23:50:33.880Z,7.37
2022-11-09T23:53:01.892Z,11.30
2022-11-09T23:55:30.544Z,8.63
2022-11-09T23:58:01.563Z,9.77
